createdAt,value
2019-03-01T00:03:36.471Z,55.57
2019-03-01T00:09:37.965Z,54.33
2019-03-01T00:15:27.520Z,69.30
2019-03-01T00:20:54.347Z,60.60
2019-03-01T00:26:29.922Z,55.10
2019-03-01T00:31:44.082Z,54.23
2019-03-01T00:37:35.819Z,54.80
2019-03-01T00:43:31.732Z,61.90
2019-03-01T00:48:33.608Z,80.33
2019-03-01T00:53:35.171Z,78.50
2019-03-01T00:58:36.804Z,80.87
2019-03-01T01:03:38.782Z,100.63
2019-03-01T01:08:40.357Z,76.67
2019-03-01T01:13:42.141Z,89.03
2019-03-01T01:18:43.724Z,102.13
2019-03-01T01:23:45.293Z,96.40
2019-03-01T01:28:47.257Z,86.17
2019-03-01T01:33:48.822Z,60.77
2019-03-01T01:38:50.408Z,74.63
2019-03-01T01:43:51.984Z,82.23
2019-03-01T01:48:53.546Z,89.77
2019-03-01T01:53:55.130Z,86.40
2019-03-01T01:58:57.092Z,106.20
2019-03-01T02:03:58.632Z,112.87
2019-03-01T02:09:00.211Z,150.23
2019-03-01T02:14:01.850Z,184.50
2019-03-01T02:19:03.399Z,203.00
2019-03-01T02:24:04.970Z,207.37
2019-03-01T02:29:06.514Z,236.37
2019-03-01T02:34:08.114Z,238.23
2019-03-01T02:39:09.669Z,228.63
2019-03-01T02:44:11.327Z,213.73
2019-03-01T02:49:13.280Z,202.43
2019-03-01T02:54:15.150Z,195.47
2019-03-01T02:59:16.707Z,194.23
2019-03-01T03:04:18.418Z,195.83
2019-03-01T03:09:19.965Z,209.67
2019-03-01T03:14:21.974Z,179.77
2019-03-01T03:19:23.512Z,152.13
2019-03-01T03:24:25.089Z,140.40
2019-03-01T03:29:27.073Z,159.13
2019-03-01T03:34:28.622Z,214.67
2019-03-01T03:39:30.257Z,186.40
2019-03-01T03:44:31.815Z,256.77
2019-03-01T03:49:33.378Z,257.27
2019-03-01T03:54:34.929Z,275.17
2019-03-01T03:59:36.492Z,247.03
2019-03-01T04:04:38.065Z,334.87
2019-03-01T04:09:39.660Z,267.07
2019-03-01T04:14:41.685Z,318.07
2019-03-01T04:19:43.617Z,371.97
2019-03-01T04:24:45.254Z,345.93
2019-03-01T04:29:46.874Z,327.40
2019-03-01T04:34:48.492Z,277.93
2019-03-01T04:39:50.061Z,265.13
2019-03-01T04:44:51.592Z,227.53
2019-03-01T04:49:53.136Z,209.57
2019-03-01T04:54:54.649Z,217.47
2019-03-01T04:59:56.237Z,227.47
2019-03-01T05:04:57.875Z,194.73
2019-03-01T05:09:59.393Z,196.87
2019-03-01T05:15:01.000Z,202.00
2019-03-01T05:20:02.588Z,220.03
2019-03-01T05:25:04.255Z,222.10
2019-03-01T05:30:06.882Z,247.80
2019-03-01T05:35:08.419Z,242.30
2019-03-01T05:40:10.725Z,285.40
2019-03-01T05:45:14.876Z,302.23
2019-03-01T05:50:17.572Z,298.40
2019-03-01T05:55:19.102Z,275.07
2019-03-01T06:00:20.741Z,255.40
2019-03-01T06:05:29.300Z,356.70
2019-03-01T06:11:19.089Z,379.60
2019-03-01T06:17:03.928Z,291.07
2019-03-01T06:22:27.113Z,329.73
2019-03-01T06:28:28.651Z,343.27
2019-03-01T06:33:53.016Z,346.93
2019-03-01T06:39:32.236Z,333.23
2019-03-01T06:45:18.431Z,398.93
2019-03-01T06:50:19.965Z,389.23
2019-03-01T06:55:42.212Z,366.17
2019-03-01T07:00:50.226Z,334.23
2019-03-01T07:05:47.294Z,378.00
2019-03-01T07:10:48.849Z,350.97
2019-03-01T07:15:50.494Z,367.80
2019-03-01T07:20:52.096Z,345.87
2019-03-01T07:25:54.864Z,364.57
2019-03-01T07:30:56.738Z,376.80
2019-03-01T07:35:58.344Z,474.57
2019-03-01T07:40:59.890Z,478.97
2019-03-01T07:46:01.514Z,471.03
2019-03-01T07:51:03.106Z,488.13
2019-03-01T07:56:05.220Z,465.40
2019-03-01T08:01:07.106Z,416.57
2019-03-01T08:06:13.136Z,76.20
2019-03-01T08:11:12.533Z,65.83
2019-03-01T08:16:16.620Z,63.70
2019-03-01T08:21:18.189Z,40.10
2019-03-01T08:26:19.800Z,59.73
2019-03-01T08:31:22.268Z,53.07
2019-03-01T08:36:23.987Z,47.33
2019-03-01T08:41:26.316Z,41.70
2019-03-01T08:46:28.031Z,45.03
2019-03-01T08:51:30.506Z,39.50
2019-03-01T08:56:32.485Z,42.73
2019-03-01T09:01:34.066Z,51.97
2019-03-01T09:06:35.720Z,48.67
2019-03-01T09:11:37.290Z,50.47
2019-03-01T09:16:40.955Z,48.10
2019-03-01T09:21:44.632Z,42.83
2019-03-01T09:26:45.886Z,40.90
2019-03-01T09:31:47.455Z,46.00
2019-03-01T09:36:51.529Z,26.03
2019-03-01T09:42:02.721Z,33.00
2019-03-01T09:46:58.457Z,24.37
2019-03-01T09:52:00.225Z,28.70
2019-03-01T09:57:01.853Z,32.40
2019-03-01T10:02:03.736Z,28.37
2019-03-01T10:07:05.724Z,29.80
2019-03-01T10:12:07.623Z,32.73
2019-03-01T10:17:09.529Z,28.33
2019-03-01T10:22:11.834Z,30.20
2019-03-01T10:27:13.374Z,30.47
2019-03-01T10:32:15.374Z,29.83
2019-03-01T10:37:16.938Z,34.07
2019-03-01T10:42:18.602Z,42.83
2019-03-01T10:47:20.129Z,35.10
2019-03-01T10:52:21.736Z,27.70
2019-03-01T10:57:23.332Z,30.27
2019-03-01T11:02:24.891Z,20.90
2019-03-01T11:07:26.527Z,19.90
2019-03-01T11:12:28.103Z,24.50
2019-03-01T11:17:29.670Z,31.03
2019-03-01T11:22:31.232Z,16.23
2019-03-01T11:27:33.144Z,10.17
2019-03-01T11:32:34.731Z,8.00
2019-03-01T11:37:36.309Z,5.87
2019-03-01T11:42:38.303Z,7.63
2019-03-01T11:47:39.964Z,5.03
2019-03-01T11:52:41.600Z,7.97
2019-03-01T11:57:43.227Z,5.10
2019-03-01T12:02:45.285Z,4.87
2019-03-01T12:07:46.849Z,3.23
2019-03-01T12:12:48.534Z,3.83
2019-03-01T12:17:50.627Z,7.00
2019-03-01T12:22:52.176Z,3.10
2019-03-01T12:27:53.773Z,5.83
2019-03-01T12:32:55.748Z,4.50
2019-03-01T12:37:57.661Z,3.47
2019-03-01T12:42:59.301Z,7.10
2019-03-01T12:48:00.874Z,2.97
2019-03-01T12:53:02.800Z,6.03
2019-03-01T12:58:04.333Z,6.07
2019-03-01T13:03:09.008Z,10.47
2019-03-01T13:08:12.533Z,6.27
2019-03-01T13:13:13.507Z,6.47
2019-03-01T13:18:16.663Z,12.03
2019-03-01T13:23:18.567Z,9.43
2019-03-01T13:28:20.193Z,6.70
2019-03-01T13:33:21.811Z,5.33
2019-03-01T13:38:23.435Z,8.33
2019-03-01T13:43:27.363Z,5.60
2019-03-01T13:48:28.511Z,2.70
2019-03-01T13:53:32.906Z,3.27
2019-03-01T13:58:33.578Z,6.60
2019-03-01T14:03:35.579Z,5.17
2019-03-01T14:08:39.723Z,1.80
2019-03-01T14:13:41.461Z,3.00
2019-03-01T14:18:43.029Z,5.97
2019-03-01T14:23:45.012Z,4.60
2019-03-01T14:28:46.544Z,5.67
2019-03-01T14:33:48.159Z,5.53
2019-03-01T14:38:50.169Z,4.47
2019-03-01T14:43:51.734Z,5.00
2019-03-01T14:48:53.343Z,5.77
2019-03-01T14:53:54.943Z,4.73
2019-03-01T14:59:04.144Z,4.17
2019-03-01T15:04:06.203Z,6.30
2019-03-01T15:09:08.191Z,7.77
2019-03-01T15:14:13.415Z,5.97
2019-03-01T15:19:13.661Z,4.63
2019-03-01T15:24:15.710Z,7.37
2019-03-01T15:29:17.268Z,7.30
2019-03-01T15:34:20.428Z,6.67
2019-03-01T15:39:22.395Z,5.87
2019-03-01T15:44:24.034Z,7.27
2019-03-01T15:49:25.632Z,2.77
2019-03-01T15:54:27.765Z,3.37
2019-03-01T15:59:29.396Z,8.07
2019-03-01T16:04:33.599Z,4.20
2019-03-01T16:09:35.621Z,3.33
2019-03-01T16:14:37.190Z,3.60
2019-03-01T16:19:38.940Z,3.73
2019-03-01T16:24:41.659Z,6.87
2019-03-01T16:29:44.357Z,6.70
2019-03-01T16:34:45.875Z,6.23
2019-03-01T16:39:48.231Z,7.00
2019-03-01T16:44:49.861Z,10.90
2019-03-01T16:49:51.534Z,10.70
2019-03-01T16:54:54.766Z,10.57
2019-03-01T16:59:56.819Z,8.70
2019-03-01T17:04:59.777Z,5.37
2019-03-01T17:10:02.781Z,7.83
2019-03-01T17:15:05.466Z,6.27
2019-03-01T17:20:08.187Z,9.50
2019-03-01T17:25:10.103Z,7.57
2019-03-01T17:30:17.761Z,8.30
2019-03-01T17:35:19.583Z,10.55
2019-03-01T17:40:21.172Z,8.87
2019-03-01T17:45:22.869Z,7.43
2019-03-01T17:50:24.603Z,5.70
2019-03-01T17:55:26.202Z,9.67
2019-03-01T18:00:27.844Z,10.03
2019-03-01T18:05:29.444Z,9.13
2019-03-01T18:10:32.062Z,3.67
2019-03-01T18:15:34.590Z,10.30
2019-03-01T18:20:37.683Z,8.23
2019-03-01T18:25:39.751Z,5.47
2019-03-01T18:30:41.836Z,6.33
2019-03-01T18:35:43.428Z,6.20
2019-03-01T18:40:44.999Z,8.30
2019-03-01T18:45:46.582Z,7.37
2019-03-01T18:50:48.155Z,10.40
2019-03-01T18:55:52.914Z,6.80
2019-03-01T19:00:53.344Z,6.07
2019-03-01T19:05:54.952Z,3.67
2019-03-01T19:10:59.719Z,9.37
2019-03-01T19:16:00.134Z,5.57
2019-03-01T19:21:02.231Z,4.00
2019-03-01T19:26:04.002Z,5.83
2019-03-01T19:31:05.632Z,3.73
2019-03-01T19:36:07.251Z,5.20
2019-03-01T19:41:09.712Z,6.53
2019-03-01T19:46:12.668Z,3.57
2019-03-01T19:51:14.905Z,4.87
2019-03-01T19:56:19.014Z,5.53
2019-03-01T20:01:20.390Z,6.30
2019-03-01T20:06:22.605Z,4.47
2019-03-01T20:11:26.746Z,5.43
2019-03-01T20:16:27.810Z,5.47
2019-03-01T20:21:30.039Z,3.87
2019-03-01T20:26:31.613Z,6.60
2019-03-01T20:31:33.355Z,2.53
2019-03-01T20:36:35.315Z,3.13
2019-03-01T20:41:40.150Z,2.70
2019-03-01T20:46:43.832Z,3.73
2019-03-01T20:51:44.921Z,3.47
2019-03-01T20:56:48.018Z,3.00
2019-03-01T21:01:50.546Z,4.53
2019-03-01T21:06:52.155Z,4.60
2019-03-01T21:11:53.778Z,4.27
2019-03-01T21:16:55.358Z,8.80
2019-03-01T21:21:57.245Z,9.73
2019-03-01T21:26:59.296Z,8.73
2019-03-01T21:32:00.891Z,7.77
2019-03-01T21:37:03.917Z,8.37
2019-03-01T21:42:06.618Z,4.43
2019-03-01T21:47:12.206Z,9.97
2019-03-01T21:52:11.933Z,10.23
2019-03-01T21:57:13.598Z,10.57
2019-03-01T22:02:21.223Z,9.67
2019-03-01T22:07:22.801Z,10.23
2019-03-01T22:12:29.535Z,8.03
2019-03-01T22:17:33.060Z,11.77
2019-03-01T22:22:37.532Z,6.67
2019-03-01T22:27:38.508Z,8.63
2019-03-01T22:32:42.359Z,13.43
2019-03-01T22:37:44.113Z,11.63
2019-03-01T22:42:49.560Z,11.70
2019-03-01T22:47:51.746Z,9.47
2019-03-01T22:52:53.349Z,14.27
2019-03-01T22:57:57.838Z,15.93
2019-03-01T23:02:59.769Z,10.00
2019-03-01T23:08:01.392Z,14.13
2019-03-01T23:13:03.011Z,10.77
2019-03-01T23:18:05.734Z,10.33
2019-03-01T23:23:08.226Z,14.30
2019-03-01T23:28:09.798Z,10.30
2019-03-01T23:33:11.470Z,15.10
2019-03-01T23:38:14.861Z,11.77
2019-03-01T23:43:16.523Z,15.40
2019-03-01T23:48:18.574Z,19.40
2019-03-01T23:53:20.137Z,14.57
2019-03-01T23:58:21.681Z,12.57
